sensor_id;sensor_type;location;lat;lon;timestamp;pressure;altitude;pressure_sealevel;temperature;humidity
41334;BME280;27078;46.428;6.256;2023-04-15T00:01:59;95619.06;;;7.54;100.00
41334;BME280;27078;46.428;6.256;2023-04-15T00:04:24;95613.09;;;7.42;100.00
41334;BME280;27078;46.428;6.256;2023-04-15T00:06:51;95604.38;;;7.32;100.00
41334;BME280;27078;46.428;6.256;2023-04-15T00:09:19;95615.69;;;7.23;100.00
41334;BME280;27078;46.428;6.256;2023-04-15T00:11:45;95601.75;;;7.32;100.00
41334;BME280;27078;46.428;6.256;2023-04-15T00:14:13;95594.28;;;7.37;100.00
41334;BME280;27078;46.428;6.256;2023-04-15T00:16:39;95604.66;;;7.29;100.00
41334;BME280;27078;46.428;6.256;2023-04-15T00:19:05;95599.28;;;7.30;100.00
41334;BME280;27078;46.428;6.256;2023-04-15T00:21:30;95600.91;;;7.31;100.00
41334;BME280;27078;46.428;6.256;2023-04-15T00:23:56;95594.00;;;7.30;100.00
41334;BME280;27078;46.428;6.256;2023-04-15T00:26:21;95605.19;;;7.23;100.00
41334;BME280;27078;46.428;6.256;2023-04-15T00:28:47;95601.47;;;7.16;100.00
41334;BME280;27078;46.428;6.256;2023-04-15T00:31:12;95600.19;;;7.10;100.00
41334;BME280;27078;46.428;6.256;2023-04-15T00:33:38;95590.22;;;7.04;100.00
41334;BME280;27078;46.428;6.256;2023-04-15T00:36:05;95590.88;;;6.96;100.00
41334;BME280;27078;46.428;6.256;2023-04-15T00:38:31;95593.13;;;7.01;100.00
41334;BME280;27078;46.428;6.256;2023-04-15T00:40:56;95589.50;;;6.92;100.00
41334;BME280;27078;46.428;6.256;2023-04-15T00:43:22;95594.34;;;6.87;100.00
41334;BME280;27078;46.428;6.256;2023-04-15T00:45:48;95587.81;;;6.81;100.00
41334;BME280;27078;46.428;6.256;2023-04-15T00:48:16;95587.53;;;6.75;100.00
41334;BME280;27078;46.428;6.256;2023-04-15T00:50:41;95589.97;;;6.66;100.00
41334;BME280;27078;46.428;6.256;2023-04-15T00:53:06;95579.75;;;6.63;100.00
41334;BME280;27078;46.428;6.256;2023-04-15T00:55:32;95576.16;;;6.64;100.00
41334;BME280;27078;46.428;6.256;2023-04-15T00:57:57;95584.47;;;6.69;100.00
41334;BME280;27078;46.428;6.256;2023-04-15T01:00:23;95582.25;;;6.65;100.00
41334;BME280;27078;46.428;6.256;2023-04-15T01:02:49;95575.91;;;6.77;100.00
41334;BME280;27078;46.428;6.256;2023-04-15T01:05:14;95581.56;;;6.72;100.00
41334;BME280;27078;46.428;6.256;2023-04-15T01:07:42;95576.78;;;6.87;100.00
41334;BME280;27078;46.428;6.256;2023-04-15T01:10:08;95583.97;;;6.85;100.00
41334;BME280;27078;46.428;6.256;2023-04-15T01:12:33;95583.13;;;6.85;100.00
41334;BME280;27078;46.428;6.256;2023-04-15T01:15:00;95584.25;;;6.82;100.00
41334;BME280;27078;46.428;6.256;2023-04-15T01:17:26;95588.16;;;7.07;100.00
41334;BME280;27078;46.428;6.256;2023-04-15T01:19:54;95594.66;;;7.03;100.00
41334;BME280;27078;46.428;6.256;2023-04-15T01:22:20;95597.00;;;6.97;100.00
41334;BME280;27078;46.428;6.256;2023-04-15T01:24:54;95592.41;;;6.89;100.00
41334;BME280;27078;46.428;6.256;2023-04-15T01:27:22;95592.81;;;6.84;100.00
41334;BME280;27078;46.428;6.256;2023-04-15T01:29:48;95589.19;;;6.76;100.00
41334;BME280;27078;46.428;6.256;2023-04-15T01:32:13;95581.56;;;6.72;100.00
41334;BME280;27078;46.428;6.256;2023-04-15T01:34:38;95587.53;;;6.75;100.00
41334;BME280;27078;46.428;6.256;2023-04-15T01:37:04;95579.56;;;6.86;100.00
41334;BME280;27078;46.428;6.256;2023-04-15T01:39:29;95579.28;;;6.89;100.00
41334;BME280;27078;46.428;6.256;2023-04-15T01:41:54;95582.19;;;6.86;100.00
41334;BME280;27078;46.428;6.256;2023-04-15T01:44:21;95580.25;;;6.98;100.00
41334;BME280;27078;46.428;6.256;2023-04-15T01:46:46;95578.47;;;6.98;100.00
41334;BME280;27078;46.428;6.256;2023-04-15T01:49:12;95578.75;;;6.95;100.00
41334;BME280;27078;46.428;6.256;2023-04-15T01:51:37;95579.84;;;7.02;100.00
41334;BME280;27078;46.428;6.256;2023-04-15T01:54:03;95569.50;;;7.10;100.00
41334;BME280;27078;46.428;6.256;2023-04-15T01:56:28;95578.78;;;7.05;100.00
41334;BME280;27078;46.428;6.256;2023-04-15T01:58:53;95576.41;;;7.02;100.00
41334;BME280;27078;46.428;6.256;2023-04-15T02:01:19;95577.94;;;7.04;100.00
41334;BME280;27078;46.428;6.256;2023-04-15T02:03:45;95575.44;;;6.93;100.00
41334;BME280;27078;46.428;6.256;2023-04-15T02:06:10;95568.38;;;6.84;100.00
41334;BME280;27078;46.428;6.256;2023-04-15T02:08:36;95575.53;;;6.82;100.00
41334;BME280;27078;46.428;6.256;2023-04-15T02:11:01;95575.97;;;6.87;100.00
41334;BME280;27078;46.428;6.256;2023-04-15T02:13:27;95566.81;;;6.81;100.00
41334;BME280;27078;46.428;6.256;2023-04-15T02:15:53;95571.25;;;6.81;100.00
41334;BME280;27078;46.428;6.256;2023-04-15T02:18:19;95569.06;;;6.86;100.00
41334;BME280;27078;46.428;6.256;2023-04-15T02:20:45;95574.44;;;6.94;100.00
41334;BME280;27078;46.428;6.256;2023-04-15T02:23:11;95570.16;;;6.93;100.00
41334;BME280;27078;46.428;6.256;2023-04-15T02:25:37;95571.81;;;6.94;100.00
41334;BME280;27078;46.428;6.256;2023-04-15T02:28:04;95574.06;;;7.08;100.00
41334;BME280;27078;46.428;6.256;2023-04-15T02:30:30;95576.16;;;7.05;100.00
41334;BME280;27078;46.428;6.256;2023-04-15T02:32:56;95579.56;;;6.86;100.00
41334;BME280;27078;46.428;6.256;2023-04-15T02:35:21;95573.75;;;6.92;100.00
41334;BME280;27078;46.428;6.256;2023-04-15T02:37:50;95574.31;;;6.86;100.00
41334;BME280;27078;46.428;6.256;2023-04-15T02:40:16;95575.66;;;6.80;100.00
41334;BME280;27078;46.428;6.256;2023-04-15T02:42:41;95568.19;;;6.76;100.00
41334;BME280;27078;46.428;6.256;2023-04-15T02:45:08;95573.69;;;6.72;100.00
41334;BME280;27078;46.428;6.256;2023-04-15T02:47:34;95572.41;;;6.57;100.00
41334;BME280;27078;46.428;6.256;2023-04-15T02:50:01;95571.72;;;6.55;100.00
41334;BME280;27078;46.428;6.256;2023-04-15T02:52:27;95569.97;;;6.65;100.00
41334;BME280;27078;46.428;6.256;2023-04-15T02:54:52;95567.59;;;6.62;100.00
41334;BME280;27078;46.428;6.256;2023-04-15T02:57:21;95568.56;;;6.61;100.00
41334;BME280;27078;46.428;6.256;2023-04-15T02:59:47;95566.06;;;6.60;100.00
41334;BME280;27078;46.428;6.256;2023-04-15T03:02:12;95564.25;;;6.60;100.00
41334;BME280;27078;46.428;6.256;2023-04-15T03:04:37;95558.19;;;6.60;100.00
41334;BME280;27078;46.428;6.256;2023-04-15T03:07:03;95552.94;;;6.60;100.00
41334;BME280;27078;46.428;6.256;2023-04-15T03:09:29;95560.03;;;6.69;100.00
41334;BME280;27078;46.428;6.256;2023-04-15T03:11:54;95551.03;;;6.62;100.00
41334;BME280;27078;46.428;6.256;2023-04-15T03:14:21;95560.94;;;6.58;100.00
41334;BME280;27078;46.428;6.256;2023-04-15T03:16:46;95562.75;;;6.58;100.00
41334;BME280;27078;46.428;6.256;2023-04-15T03:19:11;95563.44;;;6.50;100.00
41334;BME280;27078;46.428;6.256;2023-04-15T03:21:37;95559.13;;;6.49;100.00
41334;BME280;27078;46.428;6.256;2023-04-15T03:24:02;95559.81;;;6.51;100.00
41334;BME280;27078;46.428;6.256;2023-04-15T03:26:29;95562.97;;;6.45;100.00
41334;BME280;27078;46.428;6.256;2023-04-15T03:28:55;95562.72;;;6.48;100.00
41334;BME280;27078;46.428;6.256;2023-04-15T03:31:20;95562.03;;;6.46;100.00
41334;BME280;27078;46.428;6.256;2023-04-15T03:33:46;95563.03;;;6.55;100.00
41334;BME280;27078;46.428;6.256;2023-04-15T03:36:11;95553.19;;;6.47;100.00
41334;BME280;27078;46.428;6.256;2023-04-15T03:38:36;95557.59;;;6.46;100.00
41334;BME280;27078;46.428;6.256;2023-04-15T03:41:02;95560.34;;;6.45;100.00
41334;BME280;27078;46.428;6.256;2023-04-15T03:43:27;95554.84;;;6.48;100.00
41334;BME280;27078;46.428;6.256;2023-04-15T03:45:52;95558.19;;;6.50;100.00
41334;BME280;27078;46.428;6.256;2023-04-15T03:48:18;95548.22;;;6.53;100.00
41334;BME280;27078;46.428;6.256;2023-04-15T03:50:44;95545.47;;;6.55;100.00
41334;BME280;27078;46.428;6.256;2023-04-15T03:53:09;95543.28;;;6.60;100.00
41334;BME280;27078;46.428;6.256;2023-04-15T03:55:34;95543.84;;;6.64;100.00
41334;BME280;27078;46.428;6.256;2023-04-15T03:58:00;95547.00;;;6.58;100.00
41334;BME280;27078;46.428;6.256;2023-04-15T04:00:25;95545.34;;;6.57;100.00
41334;BME280;27078;46.428;6.256;2023-04-15T04:02:51;95548.94;;;6.56;100.00
41334;BME280;27078;46.428;6.256;2023-04-15T04:05:16;95549.91;;;6.55;100.00
41334;BME280;27078;46.428;6.256;2023-04-15T04:07:41;95547.28;;;6.55;100.00
41334;BME280;27078;46.428;6.256;2023-04-15T04:10:07;95547.41;;;6.53;100.00
41334;BME280;27078;46.428;6.256;2023-04-15T04:12:32;95544.22;;;6.49;100.00
41334;BME280;27078;46.428;6.256;2023-04-15T04:14:58;95556.56;;;6.59;100.00
41334;BME280;27078;46.428;6.256;2023-04-15T04:17:23;95549.50;;;6.59;100.00
41334;BME280;27078;46.428;6.256;2023-04-15T04:19:48;95547.81;;;6.58;100.00
41334;BME280;27078;46.428;6.256;2023-04-15T04:22:14;95548.28;;;6.63;100.00
41334;BME280;27078;46.428;6.256;2023-04-15T04:24:39;95550.78;;;6.65;100.00
41334;BME280;27078;46.428;6.256;2023-04-15T04:27:05;95544.72;;;6.74;100.00
41334;BME280;27078;46.428;6.256;2023-04-15T04:29:30;95551.31;;;6.68;100.00
41334;BME280;27078;46.428;6.256;2023-04-15T04:31:55;95541.09;;;6.65;100.00
41334;BME280;27078;46.428;6.256;2023-04-15T04:34:21;95538.19;;;6.68;100.00
41334;BME280;27078;46.428;6.256;2023-04-15T04:36:46;95538.34;;;6.67;100.00
41334;BME280;27078;46.428;6.256;2023-04-15T04:39:11;95536.97;;;6.72;100.00
41334;BME280;27078;46.428;6.256;2023-04-15T04:41:37;95533.47;;;6.62;100.00
41334;BME280;27078;46.428;6.256;2023-04-15T04:44:02;95538.19;;;6.59;100.00
41334;BME280;27078;46.428;6.256;2023-04-15T04:46:27;95540.25;;;6.55;100.00
41334;BME280;27078;46.428;6.256;2023-04-15T04:48:53;95546.84;;;6.49;100.00
41334;BME280;27078;46.428;6.256;2023-04-15T04:51:18;95542.00;;;6.45;100.00
41334;BME280;27078;46.428;6.256;2023-04-15T04:53:44;95540.47;;;6.42;100.00
41334;BME280;27078;46.428;6.256;2023-04-15T04:56:09;95536.31;;;6.40;100.00
41334;BME280;27078;46.428;6.256;2023-04-15T04:58:34;95545.13;;;6.39;100.00
41334;BME280;27078;46.428;6.256;2023-04-15T05:01:00;95534.13;;;6.45;100.00
41334;BME280;27078;46.428;6.256;2023-04-15T05:03:27;95541.75;;;6.48;100.00
41334;BME280;27078;46.428;6.256;2023-04-15T05:05:52;95541.88;;;6.46;100.00
41334;BME280;27078;46.428;6.256;2023-04-15T05:08:18;95539.13;;;6.48;100.00
41334;BME280;27078;46.428;6.256;2023-04-15T05:10:44;95534.00;;;6.46;100.00
41334;BME280;27078;46.428;6.256;2023-04-15T05:13:09;95545.88;;;6.50;100.00
41334;BME280;27078;46.428;6.256;2023-04-15T05:15:35;95543.97;;;6.52;100.00
41334;BME280;27078;46.428;6.256;2023-04-15T05:18:03;95547.28;;;6.64;100.00
41334;BME280;27078;46.428;6.256;2023-04-15T05:20:29;95543.34;;;6.80;100.00
41334;BME280;27078;46.428;6.256;2023-04-15T05:22:54;95536.75;;;6.95;100.00
41334;BME280;27078;46.428;6.256;2023-04-15T05:25:20;95538.97;;;7.09;100.00
41334;BME280;27078;46.428;6.256;2023-04-15T05:27:45;95542.03;;;7.05;100.00
41334;BME280;27078;46.428;6.256;2023-04-15T05:30:10;95543.25;;;7.10;100.00
41334;BME280;27078;46.428;6.256;2023-04-15T05:32:36;95542.44;;;7.20;100.00
41334;BME280;27078;46.428;6.256;2023-04-15T05:35:01;95543.94;;;7.12;100.00
41334;BME280;27078;46.428;6.256;2023-04-15T05:37:27;95540.38;;;7.13;100.00
41334;BME280;27078;46.428;6.256;2023-04-15T05:39:52;95542.84;;;7.15;100.00
41334;BME280;27078;46.428;6.256;2023-04-15T05:42:17;95547.25;;;7.14;100.00
41334;BME280;27078;46.428;6.256;2023-04-15T05:44:43;95553.91;;;7.19;100.00
41334;BME280;27078;46.428;6.256;2023-04-15T05:47:08;95555.44;;;7.11;100.00
41334;BME280;27078;46.428;6.256;2023-04-15T05:49:35;95553.06;;;7.08;100.00
41334;BME280;27078;46.428;6.256;2023-04-15T05:52:00;95552.38;;;7.06;100.00
41334;BME280;27078;46.428;6.256;2023-04-15T05:54:26;95553.59;;;7.02;100.00
41334;BME280;27078;46.428;6.256;2023-04-15T05:56:52;95554.13;;;6.96;100.00
41334;BME280;27078;46.428;6.256;2023-04-15T05:59:17;95554.13;;;6.96;100.00
41334;BME280;27078;46.428;6.256;2023-04-15T06:01:43;95555.66;;;6.89;100.00
41334;BME280;27078;46.428;6.256;2023-04-15T06:04:09;95556.06;;;6.84;100.00
41334;BME280;27078;46.428;6.256;2023-04-15T06:06:35;95557.16;;;6.82;100.00
41334;BME280;27078;46.428;6.256;2023-04-15T06:09:01;95558.25;;;6.79;100.00
41334;BME280;27078;46.428;6.256;2023-04-15T06:11:26;95559.50;;;6.85;100.00
41334;BME280;27078;46.428;6.256;2023-04-15T06:13:52;95563.81;;;6.86;100.00
41334;BME280;27078;46.428;6.256;2023-04-15T06:16:17;95560.22;;;6.87;100.00
41334;BME280;27078;46.428;6.256;2023-04-15T06:18:43;95558.28;;;6.89;100.00
41334;BME280;27078;46.428;6.256;2023-04-15T06:21:08;95561.72;;;6.89;100.00
41334;BME280;27078;46.428;6.256;2023-04-15T06:23:34;95558.41;;;6.87;100.00
41334;BME280;27078;46.428;6.256;2023-04-15T06:26:00;95557.19;;;6.91;100.00
41334;BME280;27078;46.428;6.256;2023-04-15T06:28:26;95551.66;;;6.95;100.00
41334;BME280;27078;46.428;6.256;2023-04-15T06:30:52;95549.88;;;6.95;100.00
41334;BME280;27078;46.428;6.256;2023-04-15T06:33:17;95551.25;;;6.99;100.00
41334;BME280;27078;46.428;6.256;2023-04-15T06:35:42;95552.22;;;6.98;100.00
41334;BME280;27078;46.428;6.256;2023-04-15T06:38:08;95556.50;;;6.99;100.00
41334;BME280;27078;46.428;6.256;2023-04-15T06:40:33;95552.09;;;7.09;100.00
41334;BME280;27078;46.428;6.256;2023-04-15T06:42:59;95555.97;;;7.05;100.00
41334;BME280;27078;46.428;6.256;2023-04-15T06:45:24;95566.06;;;7.10;100.00
41334;BME280;27078;46.428;6.256;2023-04-15T06:47:49;95564.53;;;7.17;100.00
41334;BME280;27078;46.428;6.256;2023-04-15T06:50:15;95567.44;;;7.24;100.00
41334;BME280;27078;46.428;6.256;2023-04-15T06:52:40;95573.25;;;7.27;100.00
41334;BME280;27078;46.428;6.256;2023-04-15T06:55:06;95572.69;;;7.24;100.00
41334;BME280;27078;46.428;6.256;2023-04-15T06:57:32;95576.00;;;7.26;100.00
41334;BME280;27078;46.428;6.256;2023-04-15T06:59:57;95577.16;;;7.33;100.00
41334;BME280;27078;46.428;6.256;2023-04-15T07:02:22;95580.63;;;7.43;100.00
41334;BME280;27078;46.428;6.256;2023-04-15T07:04:48;95578.81;;;7.63;100.00
41334;BME280;27078;46.428;6.256;2023-04-15T07:07:13;95570.50;;;7.78;100.00
41334;BME280;27078;46.428;6.256;2023-04-15T07:09:39;95570.75;;;7.84;100.00
41334;BME280;27078;46.428;6.256;2023-04-15T07:12:04;95571.06;;;7.81;100.00
41334;BME280;27078;46.428;6.256;2023-04-15T07:14:30;95577.97;;;7.82;100.00
41334;BME280;27078;46.428;6.256;2023-04-15T07:16:55;95585.72;;;7.74;100.00
41334;BME280;27078;46.428;6.256;2023-04-15T07:19:21;95574.66;;;7.70;100.00
41334;BME280;27078;46.428;6.256;2023-04-15T07:21:48;95568.13;;;7.74;100.00
41334;BME280;27078;46.428;6.256;2023-04-15T07:24:13;95567.19;;;7.85;100.00
41334;BME280;27078;46.428;6.256;2023-04-15T07:26:42;95567.00;;;7.97;100.00
41334;BME280;27078;46.428;6.256;2023-04-15T07:29:08;95573.53;;;7.92;100.00
41334;BME280;27078;46.428;6.256;2023-04-15T07:31:34;95567.88;;;7.87;100.00
41334;BME280;27078;46.428;6.256;2023-04-15T07:34:01;95574.50;;;7.82;100.00
41334;BME280;27078;46.428;6.256;2023-04-15T07:36:26;95580.44;;;7.74;100.00
41334;BME280;27078;46.428;6.256;2023-04-15T07:38:53;95585.44;;;7.67;100.00
41334;BME280;27078;46.428;6.256;2023-04-15T07:41:19;95586.53;;;7.55;100.00
41334;BME280;27078;46.428;6.256;2023-04-15T07:43:45;95575.50;;;7.51;100.00
41334;BME280;27078;46.428;6.256;2023-04-15T07:46:10;95569.41;;;7.61;100.00
41334;BME280;27078;46.428;6.256;2023-04-15T07:48:36;95563.72;;;7.75;100.00
41334;BME280;27078;46.428;6.256;2023-04-15T07:51:01;95571.03;;;7.91;100.00
41334;BME280;27078;46.428;6.256;2023-04-15T07:53:27;95562.41;;;8.08;100.00
41334;BME280;27078;46.428;6.256;2023-04-15T07:55:53;95559.06;;;8.26;100.00
41334;BME280;27078;46.428;6.256;2023-04-15T07:58:18;95559.00;;;8.45;100.00
41334;BME280;27078;46.428;6.256;2023-04-15T08:00:43;95566.22;;;8.43;100.00
41334;BME280;27078;46.428;6.256;2023-04-15T08:03:09;95555.03;;;8.69;100.00
41334;BME280;27078;46.428;6.256;2023-04-15T08:05:35;95562.91;;;8.96;100.00
41334;BME280;27078;46.428;6.256;2023-04-15T08:08:00;95569.94;;;8.78;100.00
41334;BME280;27078;46.428;6.256;2023-04-15T08:10:25;95563.28;;;8.74;100.00
41334;BME280;27078;46.428;6.256;2023-04-15T08:12:51;95576.38;;;8.66;100.00
41334;BME280;27078;46.428;6.256;2023-04-15T08:15:19;95576.97;;;8.60;100.00
41334;BME280;27078;46.428;6.256;2023-04-15T08:17:44;95577.69;;;8.52;100.00
41334;BME280;27078;46.428;6.256;2023-04-15T08:20:10;95579.78;;;8.39;100.00
41334;BME280;27078;46.428;6.256;2023-04-15T08:22:36;95580.94;;;8.16;100.00
41334;BME280;27078;46.428;6.256;2023-04-15T08:25:01;95595.34;;;8.12;100.00
41334;BME280;27078;46.428;6.256;2023-04-15T08:27:27;95590.13;;;8.03;100.00
41334;BME280;27078;46.428;6.256;2023-04-15T08:29:52;95586.66;;;8.02;100.00
41334;BME280;27078;46.428;6.256;2023-04-15T08:32:18;95590.94;;;8.03;100.00
41334;BME280;27078;46.428;6.256;2023-04-15T08:34:44;95595.75;;;8.08;100.00
41334;BME280;27078;46.428;6.256;2023-04-15T08:37:09;95590.38;;;8.19;100.00
41334;BME280;27078;46.428;6.256;2023-04-15T08:39:34;95599.50;;;8.15;100.00
41334;BME280;27078;46.428;6.256;2023-04-15T08:42:02;95600.88;;;8.19;100.00
41334;BME280;27078;46.428;6.256;2023-04-15T08:44:33;95600.72;;;8.30;100.00
41334;BME280;27078;46.428;6.256;2023-04-15T08:47:03;95600.81;;;8.39;100.00
41334;BME280;27078;46.428;6.256;2023-04-15T08:49:31;95604.00;;;8.52;100.00
41334;BME280;27078;46.428;6.256;2023-04-15T08:51:58;95599.34;;;8.73;100.00
41334;BME280;27078;46.428;6.256;2023-04-15T08:54:24;95610.41;;;8.77;100.00
41334;BME280;27078;46.428;6.256;2023-04-15T08:56:51;95603.06;;;8.81;100.00
41334;BME280;27078;46.428;6.256;2023-04-15T08:59:16;95609.00;;;8.83;100.00
41334;BME280;27078;46.428;6.256;2023-04-15T09:01:42;95617.19;;;8.80;100.00
41334;BME280;27078;46.428;6.256;2023-04-15T09:04:09;95618.25;;;8.87;100.00
41334;BME280;27078;46.428;6.256;2023-04-15T09:06:38;95619.47;;;8.92;100.00
41334;BME280;27078;46.428;6.256;2023-04-15T09:09:03;95619.44;;;9.02;100.00
41334;BME280;27078;46.428;6.256;2023-04-15T09:11:29;95629.16;;;9.02;100.00
41334;BME280;27078;46.428;6.256;2023-04-15T09:13:55;95625.00;;;8.99;100.00
41334;BME280;27078;46.428;6.256;2023-04-15T09:16:20;95637.13;;;9.10;100.00
41334;BME280;27078;46.428;6.256;2023-04-15T09:19:04;95633.72;;;9.27;100.00
41334;BME280;27078;46.428;6.256;2023-04-15T09:21:35;95640.00;;;9.44;100.00
41334;BME280;27078;46.428;6.256;2023-04-15T09:24:00;95638.66;;;9.40;100.00
41334;BME280;27078;46.428;6.256;2023-04-15T09:26:32;95639.84;;;9.46;100.00
41334;BME280;27078;46.428;6.256;2023-04-15T09:29:10;95648.19;;;9.41;100.00
41334;BME280;27078;46.428;6.256;2023-04-15T09:31:38;95648.84;;;9.53;100.00
41334;BME280;27078;46.428;6.256;2023-04-15T09:34:05;95658.94;;;9.93;100.00
41334;BME280;27078;46.428;6.256;2023-04-15T09:39:12;95657.78;;;10.50;100.00
41334;BME280;27078;46.428;6.256;2023-04-15T09:41:38;95663.75;;;10.60;100.00
41334;BME280;27078;46.428;6.256;2023-04-15T09:44:03;95667.38;;;10.33;100.00
41334;BME280;27078;46.428;6.256;2023-04-15T09:46:42;95652.38;;;9.97;100.00
41334;BME280;27078;46.428;6.256;2023-04-15T09:49:08;95669.69;;;10.18;100.00
41334;BME280;27078;46.428;6.256;2023-04-15T09:51:34;95684.72;;;9.99;100.00
41334;BME280;27078;46.428;6.256;2023-04-15T09:54:00;95686.16;;;10.12;100.00
41334;BME280;27078;46.428;6.256;2023-04-15T09:56:33;95683.72;;;10.36;100.00
41334;BME280;27078;46.428;6.256;2023-04-15T09:58:58;95656.00;;;10.58;100.00
41334;BME280;27078;46.428;6.256;2023-04-15T10:01:24;95683.66;;;10.46;100.00
41334;BME280;27078;46.428;6.256;2023-04-15T10:03:50;95677.31;;;10.21;100.00
41334;BME280;27078;46.428;6.256;2023-04-15T10:06:16;95686.81;;;10.14;100.00
41334;BME280;27078;46.428;6.256;2023-04-15T10:08:42;95685.22;;;9.85;100.00
41334;BME280;27078;46.428;6.256;2023-04-15T10:11:07;95689.16;;;10.17;100.00
41334;BME280;27078;46.428;6.256;2023-04-15T10:13:33;95693.06;;;10.13;100.00
41334;BME280;27078;46.428;6.256;2023-04-15T10:16:06;95683.97;;;10.69;100.00
41334;BME280;27078;46.428;6.256;2023-04-15T10:18:37;95694.38;;;10.97;100.00
41334;BME280;27078;46.428;6.256;2023-04-15T10:21:05;95705.94;;;11.04;100.00
41334;BME280;27078;46.428;6.256;2023-04-15T10:26:55;95722.63;;;11.05;100.00
41334;BME280;27078;46.428;6.256;2023-04-15T10:29:23;95727.03;;;11.22;100.00
41334;BME280;27078;46.428;6.256;2023-04-15T10:31:50;95718.88;;;11.07;100.00
41334;BME280;27078;46.428;6.256;2023-04-15T10:34:16;95724.31;;;10.79;100.00
41334;BME280;27078;46.428;6.256;2023-04-15T10:36:42;95738.00;;;11.01;100.00
41334;BME280;27078;46.428;6.256;2023-04-15T10:42:17;95735.63;;;10.98;100.00
41334;BME280;27078;46.428;6.256;2023-04-15T10:44:51;95745.53;;;11.22;100.00
41334;BME280;27078;46.428;6.256;2023-04-15T10:47:20;95746.13;;;11.42;100.00
41334;BME280;27078;46.428;6.256;2023-04-15T10:49:56;95747.78;;;11.43;100.00
41334;BME280;27078;46.428;6.256;2023-04-15T10:52:23;95748.47;;;11.45;100.00
41334;BME280;27078;46.428;6.256;2023-04-15T10:57:37;95761.44;;;11.65;100.00
41334;BME280;27078;46.428;6.256;2023-04-15T11:02:45;95784.81;;;11.51;100.00
41334;BME280;27078;46.428;6.256;2023-04-15T11:05:12;95780.63;;;11.06;100.00
41334;BME280;27078;46.428;6.256;2023-04-15T11:13:03;95784.56;;;11.97;100.00
41334;BME280;27078;46.428;6.256;2023-04-15T11:15:36;95784.59;;;12.13;100.00
41334;BME280;27078;46.428;6.256;2023-04-15T11:20:48;95787.25;;;11.71;100.00
41334;BME280;27078;46.428;6.256;2023-04-15T11:23:19;95794.28;;;11.54;100.00
41334;BME280;27078;46.428;6.256;2023-04-15T11:25:53;95794.09;;;11.47;100.00
41334;BME280;27078;46.428;6.256;2023-04-15T11:28:19;95802.94;;;11.64;100.00
41334;BME280;27078;46.428;6.256;2023-04-15T11:30:44;95792.88;;;11.76;100.00
41334;BME280;27078;46.428;6.256;2023-04-15T11:33:10;95794.75;;;12.42;100.00
41334;BME280;27078;46.428;6.256;2023-04-15T11:35:36;95794.56;;;12.44;100.00
41334;BME280;27078;46.428;6.256;2023-04-15T11:38:08;95790.13;;;12.86;100.00
41334;BME280;27078;46.428;6.256;2023-04-15T11:40:34;95785.66;;;13.19;100.00
41334;BME280;27078;46.428;6.256;2023-04-15T11:43:08;95777.84;;;13.09;100.00
41334;BME280;27078;46.428;6.256;2023-04-15T11:45:58;95789.63;;;12.98;100.00
41334;BME280;27078;46.428;6.256;2023-04-15T11:48:25;95797.41;;;12.34;100.00
41334;BME280;27078;46.428;6.256;2023-04-15T11:50:56;95810.44;;;11.85;100.00
41334;BME280;27078;46.428;6.256;2023-04-15T11:53:23;95792.75;;;12.28;100.00
41334;BME280;27078;46.428;6.256;2023-04-15T11:55:50;95809.75;;;11.83;100.00
41334;BME280;27078;46.428;6.256;2023-04-15T11:58:21;95794.41;;;11.87;100.00
41334;BME280;27078;46.428;6.256;2023-04-15T12:03:37;95815.94;;;11.57;100.00
41334;BME280;27078;46.428;6.256;2023-04-15T12:09:00;95819.84;;;11.79;100.00
41334;BME280;27078;46.428;6.256;2023-04-15T12:13:53;95831.09;;;12.16;100.00
41334;BME280;27078;46.428;6.256;2023-04-15T12:16:19;95828.34;;;12.42;100.00
41334;BME280;27078;46.428;6.256;2023-04-15T12:18:46;95825.88;;;12.65;100.00
41334;BME280;27078;46.428;6.256;2023-04-15T12:21:12;95835.69;;;12.81;100.00
41334;BME280;27078;46.428;6.256;2023-04-15T12:23:48;95835.69;;;12.81;100.00
41334;BME280;27078;46.428;6.256;2023-04-15T12:26:15;95849.00;;;12.30;100.00
41334;BME280;27078;46.428;6.256;2023-04-15T12:28:40;95857.81;;;12.47;100.00
41334;BME280;27078;46.428;6.256;2023-04-15T12:31:07;95857.63;;;12.32;100.00
41334;BME280;27078;46.428;6.256;2023-04-15T12:33:33;95857.03;;;12.71;100.00
41334;BME280;27078;46.428;6.256;2023-04-15T12:35:59;95860.69;;;12.87;100.00
41334;BME280;27078;46.428;6.256;2023-04-15T12:38:24;95851.75;;;12.96;100.00
41334;BME280;27078;46.428;6.256;2023-04-15T12:40:49;95841.97;;;13.21;100.00
41334;BME280;27078;46.428;6.256;2023-04-15T12:43:15;95857.38;;;13.17;100.00
41334;BME280;27078;46.428;6.256;2023-04-15T12:45:41;95851.91;;;13.52;100.00
41334;BME280;27078;46.428;6.256;2023-04-15T12:48:07;95859.84;;;13.52;100.00
41334;BME280;27078;46.428;6.256;2023-04-15T12:50:34;95856.88;;;13.14;100.00
41334;BME280;27078;46.428;6.256;2023-04-15T12:52:59;95872.28;;;13.27;100.00
41334;BME280;27078;46.428;6.256;2023-04-15T12:55:24;95875.13;;;13.09;100.00
41334;BME280;27078;46.428;6.256;2023-04-15T12:57:50;95882.56;;;13.13;100.00
41334;BME280;27078;46.428;6.256;2023-04-15T13:00:15;95884.88;;;12.92;100.00
41334;BME280;27078;46.428;6.256;2023-04-15T13:02:43;95885.91;;;13.32;100.00
41334;BME280;27078;46.428;6.256;2023-04-15T13:05:08;95882.56;;;13.46;100.00
41334;BME280;27078;46.428;6.256;2023-04-15T13:07:34;95879.59;;;13.41;100.00
41334;BME280;27078;46.428;6.256;2023-04-15T13:09:59;95898.69;;;13.36;100.00
41334;BME280;27078;46.428;6.256;2023-04-15T13:12:25;95895.00;;;13.29;100.00
41334;BME280;27078;46.428;6.256;2023-04-15T13:14:51;95905.47;;;13.31;100.00
41334;BME280;27078;46.428;6.256;2023-04-15T13:17:17;95910.63;;;13.32;100.00
41334;BME280;27078;46.428;6.256;2023-04-15T13:19:44;95915.19;;;13.71;100.00
41334;BME280;27078;46.428;6.256;2023-04-15T13:22:10;95909.94;;;14.19;100.00
41334;BME280;27078;46.428;6.256;2023-04-15T13:24:36;95913.91;;;14.62;100.00